sensor_id;sensor_type;location;lat;lon;timestamp;temperature;humidity
2851;DHT22;1433;49.976;8.342;2022-09-09T00:04:34;16.10;99.90
2851;DHT22;1433;49.976;8.342;2022-09-09T00:07:49;16.00;99.90
2851;DHT22;1433;49.976;8.342;2022-09-09T00:09:38;15.90;99.90
2851;DHT22;1433;49.976;8.342;2022-09-09T00:12:11;15.80;99.90
2851;DHT22;1433;49.976;8.342;2022-09-09T00:20:00;15.60;99.90
2851;DHT22;1433;49.976;8.342;2022-09-09T00:22:23;15.50;99.90
2851;DHT22;1433;49.976;8.342;2022-09-09T00:24:53;15.40;99.90
2851;DHT22;1433;49.976;8.342;2022-09-09T00:30:12;15.30;99.90
2851;DHT22;1433;49.976;8.342;2022-09-09T00:32:30;15.30;99.90
2851;DHT22;1433;49.976;8.342;2022-09-09T00:35:10;15.20;99.90
2851;DHT22;1433;49.976;8.342;2022-09-09T00:37:33;15.20;99.90
2851;DHT22;1433;49.976;8.342;2022-09-09T00:40:11;15.20;99.90
2851;DHT22;1433;49.976;8.342;2022-09-09T00:42:41;15.10;99.90
2851;DHT22;1433;49.976;8.342;2022-09-09T00:47:56;15.00;99.90
2851;DHT22;1433;49.976;8.342;2022-09-09T00:56:18;14.80;99.90
2851;DHT22;1433;49.976;8.342;2022-09-09T00:59:07;14.80;99.90
2851;DHT22;1433;49.976;8.342;2022-09-09T01:01:28;14.80;99.90
2851;DHT22;1433;49.976;8.342;2022-09-09T01:03:55;14.70;99.90
2851;DHT22;1433;49.976;8.342;2022-09-09T01:06:32;14.70;99.90
2851;DHT22;1433;49.976;8.342;2022-09-09T01:09:26;14.70;99.90
2851;DHT22;1433;49.976;8.342;2022-09-09T01:12:11;14.70;99.90
2851;DHT22;1433;49.976;8.342;2022-09-09T01:17:25;14.60;99.90
2851;DHT22;1433;49.976;8.342;2022-09-09T01:20:14;14.60;99.90
2851;DHT22;1433;49.976;8.342;2022-09-09T01:26:01;14.50;99.90
2851;DHT22;1433;49.976;8.342;2022-09-09T01:28:21;14.60;99.90
2851;DHT22;1433;49.976;8.342;2022-09-09T01:30:50;14.60;99.90
2851;DHT22;1433;49.976;8.342;2022-09-09T01:33:18;14.60;99.90
2851;DHT22;1433;49.976;8.342;2022-09-09T01:36:53;14.60;99.90
2851;DHT22;1433;49.976;8.342;2022-09-09T01:38:31;14.60;99.90
2851;DHT22;1433;49.976;8.342;2022-09-09T01:40:58;14.70;99.90
2851;DHT22;1433;49.976;8.342;2022-09-09T01:43:27;14.80;99.90
2851;DHT22;1433;49.976;8.342;2022-09-09T01:45:55;14.80;99.90
2851;DHT22;1433;49.976;8.342;2022-09-09T01:48:23;14.90;99.90
2851;DHT22;1433;49.976;8.342;2022-09-09T01:50:54;14.90;99.90
2851;DHT22;1433;49.976;8.342;2022-09-09T01:53:21;15.00;99.90
2851;DHT22;1433;49.976;8.342;2022-09-09T01:56:01;14.90;99.90
2851;DHT22;1433;49.976;8.342;2022-09-09T02:01:57;14.80;99.90
2851;DHT22;1433;49.976;8.342;2022-09-09T02:04:36;14.70;99.90
2851;DHT22;1433;49.976;8.342;2022-09-09T02:07:06;14.60;99.90
2851;DHT22;1433;49.976;8.342;2022-09-09T02:09:33;14.50;99.90
2851;DHT22;1433;49.976;8.342;2022-09-09T02:12:13;14.40;99.90
2851;DHT22;1433;49.976;8.342;2022-09-09T02:14:47;14.40;99.90
2851;DHT22;1433;49.976;8.342;2022-09-09T02:17:15;14.40;99.90
2851;DHT22;1433;49.976;8.342;2022-09-09T02:19:54;14.40;99.90
2851;DHT22;1433;49.976;8.342;2022-09-09T02:22:24;14.40;99.90
2851;DHT22;1433;49.976;8.342;2022-09-09T02:24:53;14.40;99.90
2851;DHT22;1433;49.976;8.342;2022-09-09T02:27:23;14.40;99.90
2851;DHT22;1433;49.976;8.342;2022-09-09T02:29:51;14.40;99.90
2851;DHT22;1433;49.976;8.342;2022-09-09T02:32:22;14.40;99.90
2851;DHT22;1433;49.976;8.342;2022-09-09T02:34:53;14.40;99.90
2851;DHT22;1433;49.976;8.342;2022-09-09T02:37:21;14.40;99.90
2851;DHT22;1433;49.976;8.342;2022-09-09T02:39:51;14.30;99.90
2851;DHT22;1433;49.976;8.342;2022-09-09T02:42:18;14.30;99.90
2851;DHT22;1433;49.976;8.342;2022-09-09T02:44:45;14.30;99.90
2851;DHT22;1433;49.976;8.342;2022-09-09T02:47:41;14.30;99.90
2851;DHT22;1433;49.976;8.342;2022-09-09T02:50:20;14.30;99.90
2851;DHT22;1433;49.976;8.342;2022-09-09T02:55:41;14.20;99.90
2851;DHT22;1433;49.976;8.342;2022-09-09T02:58:11;14.20;99.90
2851;DHT22;1433;49.976;8.342;2022-09-09T03:00:39;14.10;99.90
2851;DHT22;1433;49.976;8.342;2022-09-09T03:03:07;14.10;99.90
2851;DHT22;1433;49.976;8.342;2022-09-09T03:05:35;14.00;99.90
2851;DHT22;1433;49.976;8.342;2022-09-09T03:08:03;14.00;99.90
2851;DHT22;1433;49.976;8.342;2022-09-09T03:10:29;13.90;99.90
2851;DHT22;1433;49.976;8.342;2022-09-09T03:12:57;13.90;99.90
2851;DHT22;1433;49.976;8.342;2022-09-09T03:15:25;13.90;99.90
2851;DHT22;1433;49.976;8.342;2022-09-09T03:17:53;13.80;99.90
2851;DHT22;1433;49.976;8.342;2022-09-09T03:20:21;13.80;99.90
2851;DHT22;1433;49.976;8.342;2022-09-09T03:22:47;13.80;99.90
2851;DHT22;1433;49.976;8.342;2022-09-09T03:25:13;13.80;99.90
2851;DHT22;1433;49.976;8.342;2022-09-09T03:27:40;13.90;99.90
2851;DHT22;1433;49.976;8.342;2022-09-09T03:30:07;13.90;99.90
2851;DHT22;1433;49.976;8.342;2022-09-09T03:32:34;14.00;99.90
2851;DHT22;1433;49.976;8.342;2022-09-09T03:35:00;14.10;99.90
2851;DHT22;1433;49.976;8.342;2022-09-09T03:37:27;14.10;99.90
2851;DHT22;1433;49.976;8.342;2022-09-09T03:39:53;14.20;99.90
2851;DHT22;1433;49.976;8.342;2022-09-09T03:42:22;14.20;99.90
2851;DHT22;1433;49.976;8.342;2022-09-09T03:44:50;14.30;99.90
2851;DHT22;1433;49.976;8.342;2022-09-09T03:47:18;14.30;99.90
2851;DHT22;1433;49.976;8.342;2022-09-09T03:49:45;14.30;99.90
2851;DHT22;1433;49.976;8.342;2022-09-09T03:52:12;14.30;99.90
2851;DHT22;1433;49.976;8.342;2022-09-09T03:54:38;14.30;99.90
2851;DHT22;1433;49.976;8.342;2022-09-09T03:57:05;14.30;99.90
2851;DHT22;1433;49.976;8.342;2022-09-09T03:59:32;14.30;99.90
2851;DHT22;1433;49.976;8.342;2022-09-09T04:01:58;14.30;99.90
2851;DHT22;1433;49.976;8.342;2022-09-09T04:04:25;14.30;99.90
2851;DHT22;1433;49.976;8.342;2022-09-09T04:06:52;14.40;99.90
2851;DHT22;1433;49.976;8.342;2022-09-09T04:09:18;14.40;99.90
2851;DHT22;1433;49.976;8.342;2022-09-09T04:11:45;14.40;99.90
2851;DHT22;1433;49.976;8.342;2022-09-09T04:14:12;14.40;99.90
2851;DHT22;1433;49.976;8.342;2022-09-09T04:16:38;14.50;99.90
2851;DHT22;1433;49.976;8.342;2022-09-09T04:19:05;14.50;99.90
2851;DHT22;1433;49.976;8.342;2022-09-09T04:21:33;14.50;99.90
2851;DHT22;1433;49.976;8.342;2022-09-09T04:24:01;14.50;99.90
2851;DHT22;1433;49.976;8.342;2022-09-09T04:26:27;14.50;99.90
2851;DHT22;1433;49.976;8.342;2022-09-09T04:28:53;14.60;99.90
2851;DHT22;1433;49.976;8.342;2022-09-09T04:31:21;14.60;99.90
2851;DHT22;1433;49.976;8.342;2022-09-09T04:33:51;14.60;99.90
2851;DHT22;1433;49.976;8.342;2022-09-09T04:36:18;14.70;99.90
2851;DHT22;1433;49.976;8.342;2022-09-09T04:38:45;14.60;99.90
2851;DHT22;1433;49.976;8.342;2022-09-09T04:41:14;14.50;99.90
2851;DHT22;1433;49.976;8.342;2022-09-09T04:43:44;14.40;99.90
2851;DHT22;1433;49.976;8.342;2022-09-09T04:46:11;14.40;99.90
2851;DHT22;1433;49.976;8.342;2022-09-09T04:48:38;14.40;99.90
2851;DHT22;1433;49.976;8.342;2022-09-09T04:51:06;14.30;99.90
2851;DHT22;1433;49.976;8.342;2022-09-09T04:53:33;14.30;99.90
2851;DHT22;1433;49.976;8.342;2022-09-09T04:58:36;14.20;99.90
2851;DHT22;1433;49.976;8.342;2022-09-09T05:01:06;14.20;99.90
2851;DHT22;1433;49.976;8.342;2022-09-09T05:03:33;14.10;99.90
2851;DHT22;1433;49.976;8.342;2022-09-09T05:06:06;14.10;99.90
2851;DHT22;1433;49.976;8.342;2022-09-09T05:08:39;14.10;99.90
2851;DHT22;1433;49.976;8.342;2022-09-09T05:11:17;14.10;99.90
2851;DHT22;1433;49.976;8.342;2022-09-09T05:13:42;14.10;99.90
2851;DHT22;1433;49.976;8.342;2022-09-09T05:16:08;14.20;99.90
2851;DHT22;1433;49.976;8.342;2022-09-09T05:18:40;14.30;99.90
2851;DHT22;1433;49.976;8.342;2022-09-09T05:21:07;14.40;99.90
2851;DHT22;1433;49.976;8.342;2022-09-09T05:23:34;14.40;99.90
2851;DHT22;1433;49.976;8.342;2022-09-09T05:26:02;14.50;99.90
2851;DHT22;1433;49.976;8.342;2022-09-09T05:28:29;14.50;99.90
2851;DHT22;1433;49.976;8.342;2022-09-09T05:31:04;14.50;99.90
2851;DHT22;1433;49.976;8.342;2022-09-09T05:33:31;14.50;99.90
2851;DHT22;1433;49.976;8.342;2022-09-09T05:36:01;14.40;99.90
2851;DHT22;1433;49.976;8.342;2022-09-09T05:38:29;14.40;99.90
2851;DHT22;1433;49.976;8.342;2022-09-09T05:40:56;14.30;99.90
2851;DHT22;1433;49.976;8.342;2022-09-09T05:43:23;14.40;99.90
2851;DHT22;1433;49.976;8.342;2022-09-09T05:46:02;14.50;99.90
2851;DHT22;1433;49.976;8.342;2022-09-09T05:48:32;14.60;99.90
2851;DHT22;1433;49.976;8.342;2022-09-09T05:50:59;14.50;99.90
2851;DHT22;1433;49.976;8.342;2022-09-09T05:53:26;14.60;99.90
2851;DHT22;1433;49.976;8.342;2022-09-09T05:58:31;14.70;99.90
2851;DHT22;1433;49.976;8.342;2022-09-09T06:03:38;14.90;99.90
2851;DHT22;1433;49.976;8.342;2022-09-09T06:06:07;15.00;99.90
2851;DHT22;1433;49.976;8.342;2022-09-09T06:08:35;15.10;99.90
2851;DHT22;1433;49.976;8.342;2022-09-09T06:11:08;15.20;99.90
2851;DHT22;1433;49.976;8.342;2022-09-09T06:13:35;15.30;99.90
2851;DHT22;1433;49.976;8.342;2022-09-09T06:16:03;15.50;99.90
2851;DHT22;1433;49.976;8.342;2022-09-09T06:18:30;15.60;99.90
2851;DHT22;1433;49.976;8.342;2022-09-09T06:21:00;15.80;99.90
2851;DHT22;1433;49.976;8.342;2022-09-09T06:23:28;15.90;99.90
2851;DHT22;1433;49.976;8.342;2022-09-09T06:28:35;16.30;99.90
2851;DHT22;1433;49.976;8.342;2022-09-09T06:31:10;16.60;99.90
2851;DHT22;1433;49.976;8.342;2022-09-09T06:33:41;16.80;99.90
2851;DHT22;1433;49.976;8.342;2022-09-09T06:36:15;17.00;99.90
2851;DHT22;1433;49.976;8.342;2022-09-09T06:38:38;17.20;99.90
2851;DHT22;1433;49.976;8.342;2022-09-09T06:41:04;17.20;99.90
2851;DHT22;1433;49.976;8.342;2022-09-09T06:43:32;17.20;99.90
2851;DHT22;1433;49.976;8.342;2022-09-09T06:46:05;17.20;99.90
2851;DHT22;1433;49.976;8.342;2022-09-09T06:48:32;17.30;99.90
2851;DHT22;1433;49.976;8.342;2022-09-09T06:51:04;17.30;99.90
2851;DHT22;1433;49.976;8.342;2022-09-09T06:53:34;17.40;99.90
2851;DHT22;1433;49.976;8.342;2022-09-09T06:56:02;17.40;99.90
2851;DHT22;1433;49.976;8.342;2022-09-09T06:58:29;17.60;99.90
2851;DHT22;1433;49.976;8.342;2022-09-09T07:01:06;17.70;99.90
2851;DHT22;1433;49.976;8.342;2022-09-09T07:03:33;17.70;99.90
2851;DHT22;1433;49.976;8.342;2022-09-09T07:06:00;17.90;99.90
2851;DHT22;1433;49.976;8.342;2022-09-09T07:08:27;18.10;99.90
2851;DHT22;1433;49.976;8.342;2022-09-09T07:10:54;18.10;99.90
2851;DHT22;1433;49.976;8.342;2022-09-09T07:13:24;18.10;99.90
2851;DHT22;1433;49.976;8.342;2022-09-09T07:15:52;18.10;99.90
2851;DHT22;1433;49.976;8.342;2022-09-09T07:18:19;18.00;99.90
2851;DHT22;1433;49.976;8.342;2022-09-09T07:20:55;17.90;99.90
2851;DHT22;1433;49.976;8.342;2022-09-09T07:23:25;17.70;99.90
2851;DHT22;1433;49.976;8.342;2022-09-09T07:25:52;17.70;99.90
2851;DHT22;1433;49.976;8.342;2022-09-09T07:28:19;17.70;99.90
2851;DHT22;1433;49.976;8.342;2022-09-09T07:30:57;17.70;99.90
2851;DHT22;1433;49.976;8.342;2022-09-09T07:33:25;17.60;99.90
2851;DHT22;1433;49.976;8.342;2022-09-09T07:35:52;17.60;99.90
2851;DHT22;1433;49.976;8.342;2022-09-09T07:38:19;17.60;99.90
2851;DHT22;1433;49.976;8.342;2022-09-09T07:40:46;17.60;99.90
2851;DHT22;1433;49.976;8.342;2022-09-09T07:43:13;17.70;99.90
2851;DHT22;1433;49.976;8.342;2022-09-09T07:45:39;17.80;99.90
2851;DHT22;1433;49.976;8.342;2022-09-09T07:48:06;17.90;99.90
2851;DHT22;1433;49.976;8.342;2022-09-09T07:50:33;18.00;99.90
2851;DHT22;1433;49.976;8.342;2022-09-09T07:53:06;18.00;99.90
2851;DHT22;1433;49.976;8.342;2022-09-09T07:55:34;18.10;99.90
2851;DHT22;1433;49.976;8.342;2022-09-09T07:58:04;18.30;99.90
2851;DHT22;1433;49.976;8.342;2022-09-09T08:00:34;18.40;99.90
2851;DHT22;1433;49.976;8.342;2022-09-09T08:03:05;18.50;99.90
2851;DHT22;1433;49.976;8.342;2022-09-09T08:05:32;18.60;99.90
2851;DHT22;1433;49.976;8.342;2022-09-09T08:07:58;18.60;99.90
2851;DHT22;1433;49.976;8.342;2022-09-09T08:10:26;18.70;99.90
2851;DHT22;1433;49.976;8.342;2022-09-09T08:12:54;19.00;99.90
2851;DHT22;1433;49.976;8.342;2022-09-09T08:15:24;19.50;99.90
2851;DHT22;1433;49.976;8.342;2022-09-09T08:17:58;19.80;99.90
2851;DHT22;1433;49.976;8.342;2022-09-09T08:20:23;20.00;99.90
2851;DHT22;1433;49.976;8.342;2022-09-09T08:22:50;20.00;99.90
2851;DHT22;1433;49.976;8.342;2022-09-09T08:25:18;19.90;99.90
2851;DHT22;1433;49.976;8.342;2022-09-09T08:27:45;19.70;99.90
2851;DHT22;1433;49.976;8.342;2022-09-09T08:30:12;19.70;99.90
2851;DHT22;1433;49.976;8.342;2022-09-09T08:32:40;19.80;99.90
2851;DHT22;1433;49.976;8.342;2022-09-09T08:35:07;20.00;99.90
2851;DHT22;1433;49.976;8.342;2022-09-09T08:37:37;20.20;99.90
2851;DHT22;1433;49.976;8.342;2022-09-09T08:40:05;20.40;99.90
2851;DHT22;1433;49.976;8.342;2022-09-09T08:42:40;20.60;99.90
2851;DHT22;1433;49.976;8.342;2022-09-09T08:45:28;20.50;99.90
2851;DHT22;1433;49.976;8.342;2022-09-09T08:53:21;20.00;99.90
2851;DHT22;1433;49.976;8.342;2022-09-09T08:56:08;20.20;99.90
2851;DHT22;1433;49.976;8.342;2022-09-09T08:58:34;20.10;99.90
2851;DHT22;1433;49.976;8.342;2022-09-09T09:03:54;20.20;99.90
2851;DHT22;1433;49.976;8.342;2022-09-09T09:11:55;20.20;99.90
2851;DHT22;1433;49.976;8.342;2022-09-09T09:14:29;20.00;99.90
2851;DHT22;1433;49.976;8.342;2022-09-09T09:17:01;20.00;99.90
2851;DHT22;1433;49.976;8.342;2022-09-09T09:19:32;19.80;99.90
2851;DHT22;1433;49.976;8.342;2022-09-09T09:22:16;19.50;99.90
2851;DHT22;1433;49.976;8.342;2022-09-09T09:30:19;19.90;99.90
2851;DHT22;1433;49.976;8.342;2022-09-09T09:32:57;20.10;99.90
2851;DHT22;1433;49.976;8.342;2022-09-09T09:35:28;20.20;99.90
2851;DHT22;1433;49.976;8.342;2022-09-09T09:37:55;20.70;99.90
2851;DHT22;1433;49.976;8.342;2022-09-09T09:40:26;21.40;99.90
2851;DHT22;1433;49.976;8.342;2022-09-09T09:43:00;21.70;99.90
2851;DHT22;1433;49.976;8.342;2022-09-09T09:45:33;21.80;99.90
2851;DHT22;1433;49.976;8.342;2022-09-09T09:48:08;22.10;99.90
2851;DHT22;1433;49.976;8.342;2022-09-09T09:51:20;22.40;99.90
2851;DHT22;1433;49.976;8.342;2022-09-09T09:53:24;22.20;99.90
2851;DHT22;1433;49.976;8.342;2022-09-09T09:56:00;22.10;99.90
2851;DHT22;1433;49.976;8.342;2022-09-09T10:01:26;21.00;99.90
2851;DHT22;1433;49.976;8.342;2022-09-09T10:04:17;21.00;99.90
2851;DHT22;1433;49.976;8.342;2022-09-09T10:06:45;21.30;99.90
2851;DHT22;1433;49.976;8.342;2022-09-09T10:12:02;21.50;99.90
2851;DHT22;1433;49.976;8.342;2022-09-09T10:14:48;21.40;99.90
2851;DHT22;1433;49.976;8.342;2022-09-09T10:22:36;21.20;99.90
2851;DHT22;1433;49.976;8.342;2022-09-09T10:33:27;22.30;99.90
2851;DHT22;1433;49.976;8.342;2022-09-09T10:36:09;22.00;99.90
2851;DHT22;1433;49.976;8.342;2022-09-09T10:38:39;22.00;99.90
2851;DHT22;1433;49.976;8.342;2022-09-09T10:44:02;22.80;99.90
2851;DHT22;1433;49.976;8.342;2022-09-09T10:52:28;23.60;99.90
2851;DHT22;1433;49.976;8.342;2022-09-09T10:55:17;22.50;99.90
2851;DHT22;1433;49.976;8.342;2022-09-09T10:57:42;22.40;99.90
2851;DHT22;1433;49.976;8.342;2022-09-09T11:00:25;22.10;99.90
2851;DHT22;1433;49.976;8.342;2022-09-09T11:03:03;21.60;99.90
2851;DHT22;1433;49.976;8.342;2022-09-09T11:05:43;21.40;99.90
2851;DHT22;1433;49.976;8.342;2022-09-09T11:08:26;21.40;99.90
2851;DHT22;1433;49.976;8.342;2022-09-09T11:14:12;22.40;99.90
2851;DHT22;1433;49.976;8.342;2022-09-09T11:16:46;22.30;99.90
2851;DHT22;1433;49.976;8.342;2022-09-09T11:19:24;22.30;99.90
2851;DHT22;1433;49.976;8.342;2022-09-09T11:21:49;23.00;99.90
2851;DHT22;1433;49.976;8.342;2022-09-09T11:26:57;21.80;99.90
2851;DHT22;1433;49.976;8.342;2022-09-09T11:29:36;21.50;99.90
2851;DHT22;1433;49.976;8.342;2022-09-09T11:37:59;23.90;99.90
2851;DHT22;1433;49.976;8.342;2022-09-09T11:40:18;24.80;99.90
2851;DHT22;1433;49.976;8.342;2022-09-09T11:42:43;24.20;99.90
2851;DHT22;1433;49.976;8.342;2022-09-09T11:45:15;23.30;99.90
2851;DHT22;1433;49.976;8.342;2022-09-09T11:47:50;23.10;99.90
2851;DHT22;1433;49.976;8.342;2022-09-09T11:52:51;22.40;99.90
2851;DHT22;1433;49.976;8.342;2022-09-09T11:55:27;22.70;99.90
2851;DHT22;1433;49.976;8.342;2022-09-09T11:58:00;22.40;99.90
2851;DHT22;1433;49.976;8.342;2022-09-09T12:00:33;22.10;99.90
2851;DHT22;1433;49.976;8.342;2022-09-09T12:03:01;21.80;99.90
2851;DHT22;1433;49.976;8.342;2022-09-09T12:05:39;21.60;99.90
2851;DHT22;1433;49.976;8.342;2022-09-09T12:08:16;21.50;99.90
2851;DHT22;1433;49.976;8.342;2022-09-09T12:11:00;21.20;99.90
2851;DHT22;1433;49.976;8.342;2022-09-09T12:13:29;21.00;99.90
2851;DHT22;1433;49.976;8.342;2022-09-09T12:15:59;18.30;99.90
2851;DHT22;1433;49.976;8.342;2022-09-09T12:18:36;17.20;99.90
2851;DHT22;1433;49.976;8.342;2022-09-09T12:24:09;16.60;99.90
2851;DHT22;1433;49.976;8.342;2022-09-09T12:26:49;16.50;99.90
2851;DHT22;1433;49.976;8.342;2022-09-09T12:30:09;16.50;99.90
2851;DHT22;1433;49.976;8.342;2022-09-09T12:32:11;16.50;99.90
2851;DHT22;1433;49.976;8.342;2022-09-09T12:37:38;16.40;99.90
2851;DHT22;1433;49.976;8.342;2022-09-09T12:40:22;16.50;99.90
2851;DHT22;1433;49.976;8.342;2022-09-09T12:42:50;16.50;99.90
2851;DHT22;1433;49.976;8.342;2022-09-09T12:45:24;16.50;99.90
2851;DHT22;1433;49.976;8.342;2022-09-09T12:47:56;16.40;99.90
2851;DHT22;1433;49.976;8.342;2022-09-09T12:50:29;16.60;99.90
2851;DHT22;1433;49.976;8.342;2022-09-09T12:53:00;16.70;99.90
2851;DHT22;1433;49.976;8.342;2022-09-09T12:55:30;16.80;99.90
2851;DHT22;1433;49.976;8.342;2022-09-09T12:58:01;16.80;99.90
2851;DHT22;1433;49.976;8.342;2022-09-09T13:00:36;17.00;99.90
2851;DHT22;1433;49.976;8.342;2022-09-09T13:03:18;17.90;99.90
2851;DHT22;1433;49.976;8.342;2022-09-09T13:05:52;19.00;99.90
2851;DHT22;1433;49.976;8.342;2022-09-09T13:08:19;20.20;99.90
2851;DHT22;1433;49.976;8.342;2022-09-09T13:11:02;20.70;99.90
2851;DHT22;1433;49.976;8.342;2022-09-09T13:13:37;21.60;99.90
2851;DHT22;1433;49.976;8.342;2022-09-09T13:16:18;22.10;99.90
2851;DHT22;1433;49.976;8.342;2022-09-09T13:18:40;22.60;99.90
2851;DHT22;1433;49.976;8.342;2022-09-09T13:21:09;22.80;99.90
2851;DHT22;1433;49.976;8.342;2022-09-09T13:23:37;23.60;99.90
2851;DHT22;1433;49.976;8.342;2022-09-09T13:26:06;24.00;99.90
2851;DHT22;1433;49.976;8.342;2022-09-09T13:28:33;23.90;99.90
2851;DHT22;1433;49.976;8.342;2022-09-09T13:31:03;24.40;99.90
2851;DHT22;1433;49.976;8.342;2022-09-09T13:33:46;24.30;99.90
2851;DHT22;1433;49.976;8.342;2022-09-09T13:36:05;23.80;99.90
2851;DHT22;1433;49.976;8.342;2022-09-09T13:38:36;23.50;99.90
2851;DHT22;1433;49.976;8.342;2022-09-09T13:41:08;23.20;99.90
2851;DHT22;1433;49.976;8.342;2022-09-09T13:43:38;22.90;99.90
2851;DHT22;1433;49.976;8.342;2022-09-09T13:51:46;21.50;99.90
2851;DHT22;1433;49.976;8.342;2022-09-09T13:54:15;21.10;99.90
2851;DHT22;1433;49.976;8.342;2022-09-09T13:56:43;20.60;99.90
2851;DHT22;1433;49.976;8.342;2022-09-09T13:59:12;20.70;99.90
2851;DHT22;1433;49.976;8.342;2022-09-09T14:01:40;20.60;99.90
2851;DHT22;1433;49.976;8.342;2022-09-09T14:04:08;20.60;99.90
2851;DHT22;1433;49.976;8.342;2022-09-09T14:06:35;20.40;99.90
2851;DHT22;1433;49.976;8.342;2022-09-09T14:09:06;20.30;99.90
2851;DHT22;1433;49.976;8.342;2022-09-09T14:11:33;20.30;99.90
2851;DHT22;1433;49.976;8.342;2022-09-09T14:13:59;20.40;99.90
2851;DHT22;1433;49.976;8.342;2022-09-09T14:16:28;20.40;99.90
2851;DHT22;1433;49.976;8.342;2022-09-09T14:18:55;20.40;99.90
2851;DHT22;1433;49.976;8.342;2022-09-09T14:21:23;20.00;99.90
2851;DHT22;1433;49.976;8.342;2022-09-09T14:23:49;20.00;99.90
2851;DHT22;1433;49.976;8.342;2022-09-09T14:26:16;20.10;99.90
2851;DHT22;1433;49.976;8.342;2022-09-09T14:28:42;20.30;99.90
2851;DHT22;1433;49.976;8.342;2022-09-09T14:31:08;20.30;99.90
2851;DHT22;1433;49.976;8.342;2022-09-09T14:33:36;20.00;99.90
2851;DHT22;1433;49.976;8.342;2022-09-09T14:36:03;19.90;99.90
2851;DHT22;1433;49.976;8.342;2022-09-09T14:38:32;19.80;99.90
2851;DHT22;1433;49.976;8.342;2022-09-09T14:41:00;19.70;99.90
2851;DHT22;1433;49.976;8.342;2022-09-09T14:43:28;19.60;99.90
2851;DHT22;1433;49.976;8.342;2022-09-09T14:45:55;19.70;99.90
2851;DHT22;1433;49.976;8.342;2022-09-09T14:48:22;19.70;99.90
2851;DHT22;1433;49.976;8.342;2022-09-09T14:50:48;19.60;99.90
2851;DHT22;1433;49.976;8.342;2022-09-09T14:53:16;19.30;99.90
2851;DHT22;1433;49.976;8.342;2022-09-09T14:55:42;19.00;99.90
2851;DHT22;1433;49.976;8.342;2022-09-09T14:58:08;18.90;99.90
2851;DHT22;1433;49.976;8.342;2022-09-09T15:00:35;19.10;99.90
2851;DHT22;1433;49.976;8.342;2022-09-09T15:03:01;19.10;99.90
2851;DHT22;1433;49.976;8.342;2022-09-09T15:05:27;18.60;99.90
2851;DHT22;1433;49.976;8.342;2022-09-09T15:07:53;18.40;99.90
2851;DHT22;1433;49.976;8.342;2022-09-09T15:10:20;18.80;99.90
2851;DHT22;1433;49.976;8.342;2022-09-09T15:12:47;19.10;99.90
2851;DHT22;1433;49.976;8.342;2022-09-09T15:15:13;19.40;99.90
2851;DHT22;1433;49.976;8.342;2022-09-09T15:17:39;19.60;99.90
2851;DHT22;1433;49.976;8.342;2022-09-09T15:20:06;19.90;99.90
2851;DHT22;1433;49.976;8.342;2022-09-09T15:22:32;20.00;99.90
2851;DHT22;1433;49.976;8.342;2022-09-09T15:24:59;20.20;99.90
2851;DHT22;1433;49.976;8.342;2022-09-09T15:27:25;20.60;99.90
2851;DHT22;1433;49.976;8.342;2022-09-09T15:29:51;21.20;99.90
2851;DHT22;1433;49.976;8.342;2022-09-09T15:32:18;21.80;99.90
2851;DHT22;1433;49.976;8.342;2022-09-09T15:34:44;22.00;99.90
2851;DHT22;1433;49.976;8.342;2022-09-09T15:37:11;22.20;99.90
2851;DHT22;1433;49.976;8.342;2022-09-09T15:39:40;22.20;99.90
2851;DHT22;1433;49.976;8.342;2022-09-09T15:42:07;21.60;99.90
2851;DHT22;1433;49.976;8.342;2022-09-09T15:44:41;21.30;99.90
2851;DHT22;1433;49.976;8.342;2022-09-09T15:47:10;21.00;99.90
2851;DHT22;1433;49.976;8.342;2022-09-09T15:49:38;20.90;99.90
2851;DHT22;1433;49.976;8.342;2022-09-09T15:52:04;20.80;99.90
2851;DHT22;1433;49.976;8.342;2022-09-09T15:54:33;20.70;99.90
2851;DHT22;1433;49.976;8.342;2022-09-09T15:57:02;20.40;99.90
2851;DHT22;1433;49.976;8.342;2022-09-09T15:59:30;20.20;99.90
2851;DHT22;1433;49.976;8.342;2022-09-09T16:01:56;20.10;99.90
2851;DHT22;1433;49.976;8.342;2022-09-09T16:04:23;20.10;99.90
2851;DHT22;1433;49.976;8.342;2022-09-09T16:06:54;20.00;99.90
2851;DHT22;1433;49.976;8.342;2022-09-09T16:09:21;19.90;99.90
2851;DHT22;1433;49.976;8.342;2022-09-09T16:11:49;19.80;99.90
2851;DHT22;1433;49.976;8.342;2022-09-09T16:14:15;19.80;99.90
2851;DHT22;1433;49.976;8.342;2022-09-09T16:16:42;19.80;99.90
2851;DHT22;1433;49.976;8.342;2022-09-09T16:19:10;19.80;99.90
2851;DHT22;1433;49.976;8.342;2022-09-09T16:21:41;19.80;99.90
2851;DHT22;1433;49.976;8.342;2022-09-09T16:24:15;19.80;99.90
2851;DHT22;1433;49.976;8.342;2022-09-09T16:26:41;19.60;99.90
2851;DHT22;1433;49.976;8.342;2022-09-09T16:29:10;19.60;99.90
2851;DHT22;1433;49.976;8.342;2022-09-09T16:31:36;19.50;99.90
2851;DHT22;1433;49.976;8.342;2022-09-09T16:34:03;19.40;99.90
2851;DHT22;1433;49.976;8.342;2022-09-09T16:36:31;19.40;99.90
2851;DHT22;1433;49.976;8.342;2022-09-09T16:39:05;19.40;99.90
2851;DHT22;1433;49.976;8.342;2022-09-09T16:41:36;19.30;99.90
2851;DHT22;1433;49.976;8.342;2022-09-09T16:44:05;19.20;99.90
2851;DHT22;1433;49.976;8.342;2022-09-09T16:46:36;19.20;99.90
2851;DHT22;1433;49.976;8.342;2022-09-09T16:49:05;19.20;99.90
2851;DHT22;1433;49.976;8.342;2022-09-09T16:51:34;19.20;99.90
2851;DHT22;1433;49.976;8.342;2022-09-09T16:54:05;19.20;99.90
2851;DHT22;1433;49.976;8.342;2022-09-09T16:56:34;19.10;99.90
2851;DHT22;1433;49.976;8.342;2022-09-09T16:59:08;19.00;99.90
2851;DHT22;1433;49.976;8.342;2022-09-09T17:01:37;19.00;99.90
2851;DHT22;1433;49.976;8.342;2022-09-09T17:04:05;18.90;99.90
2851;DHT22;1433;49.976;8.342;2022-09-09T17:06:36;18.90;99.90
2851;DHT22;1433;49.976;8.342;2022-09-09T17:09:08;18.80;99.90
2851;DHT22;1433;49.976;8.342;2022-09-09T17:11:36;18.80;99.90
2851;DHT22;1433;49.976;8.342;2022-09-09T17:14:03;18.80;99.90
2851;DHT22;1433;49.976;8.342;2022-09-09T17:16:31;18.50;99.90
2851;DHT22;1433;49.976;8.342;2022-09-09T17:18:57;17.80;99.90
2851;DHT22;1433;49.976;8.342;2022-09-09T17:21:28;17.10;99.90
2851;DHT22;1433;49.976;8.342;2022-09-09T17:23:56;16.70;99.90
2851;DHT22;1433;49.976;8.342;2022-09-09T17:26:26;16.50;99.90
2851;DHT22;1433;49.976;8.342;2022-09-09T17:28:53;16.30;99.90
2851;DHT22;1433;49.976;8.342;2022-09-09T17:31:21;16.30;99.90
2851;DHT22;1433;49.976;8.342;2022-09-09T17:33:50;16.30;99.90
2851;DHT22;1433;49.976;8.342;2022-09-09T17:36:26;16.20;99.90
2851;DHT22;1433;49.976;8.342;2022-09-09T17:38:53;16.20;99.90
2851;DHT22;1433;49.976;8.342;2022-09-09T17:41:23;16.00;99.90
2851;DHT22;1433;49.976;8.342;2022-09-09T17:43:50;16.00;99.90
2851;DHT22;1433;49.976;8.342;2022-09-09T17:46:19;15.90;99.90
2851;DHT22;1433;49.976;8.342;2022-09-09T17:48:49;15.80;99.90
2851;DHT22;1433;49.976;8.342;2022-09-09T17:51:20;15.80;99.90
2851;DHT22;1433;49.976;8.342;2022-09-09T17:53:48;15.80;99.90
2851;DHT22;1433;49.976;8.342;2022-09-09T17:56:17;15.90;99.90
2851;DHT22;1433;49.976;8.342;2022-09-09T17:58:50;15.90;99.90
2851;DHT22;1433;49.976;8.342;2022-09-09T18:01:21;15.90;99.90
2851;DHT22;1433;49.976;8.342;2022-09-09T18:03:49;16.00;99.90
2851;DHT22;1433;49.976;8.342;2022-09-09T18:06:18;16.00;99.90
2851;DHT22;1433;49.976;8.342;2022-09-09T18:08:57;16.00;99.90
2851;DHT22;1433;49.976;8.342;2022-09-09T18:11:26;15.80;99.90
2851;DHT22;1433;49.976;8.342;2022-09-09T18:13:55;15.50;99.90
2851;DHT22;1433;49.976;8.342;2022-09-09T18:16:27;15.40;99.90